Main page
METAR-TAF:

METAR-TAF

Airports :

Doha International Airport

Doha, Qatar

latitude: 25-15-40N, longitude: 051-33-54E, elevation: 11 m

Current weather observation

The report was made 22 minutes ago, at 00:30 UTC
Wind 9 kt from the West/Northwest, varying between West and North/Northwest
Temperature 21°C
Humidity 69%
Pressure 1018 hPa
Visibility 10 km or more
no clouds below 1500 m and no cumulonimbus

METAR: OTBD 210030Z AUTO 30009KT 270V330 CAVOK 21/15 Q1018 NOSIG

Time: 03:52 (00:52 UTC)

Forecast

The report was made 1 hour and 25 minutes ago, at 23:27 UTC
Forecast valid from 21 at 00 UTC to 22 at 06 UTC
Wind 11 kt from the Northwest
Visibility 10 km or more
no clouds below 1500 m and no cumulonimbus

TAF: OTBD 202327Z 2100/2206 31011KT CAVOK

Weather observations and forecasts of more than 4000 airports (METAR and TAF reports).

The available stations are represented by yellow and red dots on the map.

Hover mouse over dot to see the name of the station.

Then click to see weather observations and forecasts.

To change the map : click on the green buttons with a black cross to zoom in, on the green button with a dash to zoom out, or on the green arrows for adjacent maps.


METAR-TAF: